Terminal Aerodrome Forecast
Issued by NWS

Home | Current Version | Previous Version | Text Only | Print | Product List | Glossary On
Versions: 1 2 3 4 5 6 7 8 9 10 11 12 13 14 15 16 17 18 19 20 21 22 23 24
000
FTUS43 KDLH 161000 AAA
TAFHYR
TAF AMD
KHYR 161005Z 1610/1706 00000KT P6SM SKC
     FM161700 25008G15KT P6SM SCT060
     FM170000 VRB03KT P6SM SKC=

USA.gov is the U.S. government's official web portal to all federal, state and local government web resources and services.